sensor_id;sensor_type;location;lat;lon;timestamp;P1;durP1;ratioP1;P2;durP2;ratioP2
46835;SDS011;32573;51.290;6.926;2023-01-01T00:00:47;21.80;;;14.10;;
46835;SDS011;32573;51.290;6.926;2023-01-01T00:03:15;22.35;;;15.02;;
46835;SDS011;32573;51.290;6.926;2023-01-01T00:05:44;23.80;;;14.77;;
46835;SDS011;32573;51.290;6.926;2023-01-01T00:08:12;21.85;;;14.27;;
46835;SDS011;32573;51.290;6.926;2023-01-01T00:10:40;23.17;;;13.82;;
46835;SDS011;32573;51.290;6.926;2023-01-01T00:13:11;22.10;;;14.02;;
46835;SDS011;32573;51.290;6.926;2023-01-01T00:15:41;18.70;;;13.10;;
46835;SDS011;32573;51.290;6.926;2023-01-01T00:18:09;18.35;;;13.30;;
46835;SDS011;32573;51.290;6.926;2023-01-01T00:20:38;19.52;;;13.93;;
46835;SDS011;32573;51.290;6.926;2023-01-01T00:23:06;20.75;;;13.55;;
46835;SDS011;32573;51.290;6.926;2023-01-01T00:25:34;22.85;;;14.10;;
46835;SDS011;32573;51.290;6.926;2023-01-01T00:28:03;23.15;;;14.25;;
46835;SDS011;32573;51.290;6.926;2023-01-01T00:30:31;22.90;;;15.48;;
46835;SDS011;32573;51.290;6.926;2023-01-01T00:33:01;20.63;;;14.93;;
46835;SDS011;32573;51.290;6.926;2023-01-01T00:35:30;22.88;;;14.98;;
46835;SDS011;32573;51.290;6.926;2023-01-01T00:38:00;20.35;;;15.00;;
46835;SDS011;32573;51.290;6.926;2023-01-01T00:40:29;22.48;;;15.88;;
46835;SDS011;32573;51.290;6.926;2023-01-01T00:42:58;23.55;;;15.63;;
46835;SDS011;32573;51.290;6.926;2023-01-01T00:45:26;19.67;;;14.82;;
46835;SDS011;32573;51.290;6.926;2023-01-01T00:47:54;24.13;;;16.48;;
46835;SDS011;32573;51.290;6.926;2023-01-01T00:50:24;22.70;;;17.20;;
46835;SDS011;32573;51.290;6.926;2023-01-01T00:52:52;27.10;;;20.90;;
46835;SDS011;32573;51.290;6.926;2023-01-01T00:55:21;22.77;;;18.33;;
46835;SDS011;32573;51.290;6.926;2023-01-01T00:57:49;18.67;;;14.00;;
46835;SDS011;32573;51.290;6.926;2023-01-01T01:00:18;17.70;;;13.85;;
46835;SDS011;32573;51.290;6.926;2023-01-01T01:02:47;17.90;;;13.00;;
46835;SDS011;32573;51.290;6.926;2023-01-01T01:05:15;15.88;;;11.75;;
46835;SDS011;32573;51.290;6.926;2023-01-01T01:07:45;17.45;;;11.05;;
46835;SDS011;32573;51.290;6.926;2023-01-01T01:10:13;12.23;;;8.75;;
46835;SDS011;32573;51.290;6.926;2023-01-01T01:12:42;13.40;;;8.88;;
46835;SDS011;32573;51.290;6.926;2023-01-01T01:15:11;12.88;;;8.88;;
46835;SDS011;32573;51.290;6.926;2023-01-01T01:17:40;11.65;;;7.80;;
46835;SDS011;32573;51.290;6.926;2023-01-01T01:20:08;12.55;;;7.72;;
46835;SDS011;32573;51.290;6.926;2023-01-01T01:22:38;10.23;;;6.65;;
46835;SDS011;32573;51.290;6.926;2023-01-01T01:25:08;9.23;;;6.28;;
46835;SDS011;32573;51.290;6.926;2023-01-01T01:27:37;11.38;;;7.10;;
46835;SDS011;32573;51.290;6.926;2023-01-01T01:30:06;12.75;;;7.50;;
46835;SDS011;32573;51.290;6.926;2023-01-01T01:32:35;12.40;;;9.32;;
46835;SDS011;32573;51.290;6.926;2023-01-01T01:35:04;11.52;;;8.70;;
46835;SDS011;32573;51.290;6.926;2023-01-01T01:37:32;10.77;;;8.30;;
46835;SDS011;32573;51.290;6.926;2023-01-01T01:40:01;11.35;;;6.57;;
46835;SDS011;32573;51.290;6.926;2023-01-01T01:42:31;9.55;;;6.25;;
46835;SDS011;32573;51.290;6.926;2023-01-01T01:45:00;11.95;;;7.10;;
46835;SDS011;32573;51.290;6.926;2023-01-01T01:47:30;11.35;;;7.32;;
46835;SDS011;32573;51.290;6.926;2023-01-01T01:50:03;11.40;;;7.57;;
46835;SDS011;32573;51.290;6.926;2023-01-01T01:52:36;11.23;;;7.57;;
46835;SDS011;32573;51.290;6.926;2023-01-01T01:55:08;9.55;;;6.53;;
46835;SDS011;32573;51.290;6.926;2023-01-01T01:57:39;8.85;;;5.72;;
46835;SDS011;32573;51.290;6.926;2023-01-01T02:00:08;9.05;;;5.78;;
46835;SDS011;32573;51.290;6.926;2023-01-01T02:02:39;11.00;;;5.47;;
46835;SDS011;32573;51.290;6.926;2023-01-01T02:05:12;9.27;;;5.88;;
46835;SDS011;32573;51.290;6.926;2023-01-01T02:07:40;9.50;;;6.60;;
46835;SDS011;32573;51.290;6.926;2023-01-01T02:10:09;9.38;;;5.53;;
46835;SDS011;32573;51.290;6.926;2023-01-01T02:12:39;10.18;;;5.68;;
46835;SDS011;32573;51.290;6.926;2023-01-01T02:15:08;7.95;;;4.45;;
46835;SDS011;32573;51.290;6.926;2023-01-01T02:17:39;6.97;;;3.40;;
46835;SDS011;32573;51.290;6.926;2023-01-01T02:20:19;9.35;;;2.70;;
46835;SDS011;32573;51.290;6.926;2023-01-01T02:23:04;4.10;;;2.30;;
46835;SDS011;32573;51.290;6.926;2023-01-01T02:25:42;4.65;;;2.20;;
46835;SDS011;32573;51.290;6.926;2023-01-01T02:28:31;4.40;;;1.63;;
46835;SDS011;32573;51.290;6.926;2023-01-01T02:31:11;5.45;;;1.50;;
46835;SDS011;32573;51.290;6.926;2023-01-01T02:33:49;3.35;;;1.35;;
46835;SDS011;32573;51.290;6.926;2023-01-01T02:36:22;4.13;;;1.50;;
46835;SDS011;32573;51.290;6.926;2023-01-01T02:38:52;3.83;;;1.58;;
46835;SDS011;32573;51.290;6.926;2023-01-01T02:41:24;4.03;;;1.42;;
46835;SDS011;32573;51.290;6.926;2023-01-01T02:43:56;4.13;;;1.52;;
46835;SDS011;32573;51.290;6.926;2023-01-01T02:46:23;4.38;;;1.55;;
46835;SDS011;32573;51.290;6.926;2023-01-01T02:48:58;3.28;;;1.38;;
46835;SDS011;32573;51.290;6.926;2023-01-01T02:51:39;4.43;;;1.73;;
46835;SDS011;32573;51.290;6.926;2023-01-01T02:54:19;4.07;;;1.38;;
46835;SDS011;32573;51.290;6.926;2023-01-01T02:57:00;4.72;;;1.48;;
46835;SDS011;32573;51.290;6.926;2023-01-01T02:59:42;3.40;;;1.33;;
46835;SDS011;32573;51.290;6.926;2023-01-01T03:02:41;3.70;;;1.60;;
46835;SDS011;32573;51.290;6.926;2023-01-01T03:05:23;4.03;;;1.40;;
46835;SDS011;32573;51.290;6.926;2023-01-01T03:08:00;4.63;;;1.48;;
46835;SDS011;32573;51.290;6.926;2023-01-01T03:10:36;3.08;;;1.40;;
46835;SDS011;32573;51.290;6.926;2023-01-01T03:13:11;3.42;;;1.17;;
46835;SDS011;32573;51.290;6.926;2023-01-01T03:15:49;4.63;;;1.58;;
46835;SDS011;32573;51.290;6.926;2023-01-01T03:18:27;3.65;;;1.42;;
46835;SDS011;32573;51.290;6.926;2023-01-01T03:21:04;4.65;;;1.45;;
46835;SDS011;32573;51.290;6.926;2023-01-01T03:23:34;3.92;;;1.40;;
46835;SDS011;32573;51.290;6.926;2023-01-01T03:26:13;3.42;;;1.27;;
46835;SDS011;32573;51.290;6.926;2023-01-01T03:28:45;3.80;;;1.20;;
46835;SDS011;32573;51.290;6.926;2023-01-01T03:31:20;3.15;;;1.23;;
46835;SDS011;32573;51.290;6.926;2023-01-01T03:33:54;3.83;;;1.40;;
46835;SDS011;32573;51.290;6.926;2023-01-01T03:36:29;3.70;;;1.40;;
46835;SDS011;32573;51.290;6.926;2023-01-01T03:39:02;3.20;;;1.30;;
46835;SDS011;32573;51.290;6.926;2023-01-01T03:41:35;5.00;;;1.30;;
46835;SDS011;32573;51.290;6.926;2023-01-01T03:44:08;3.88;;;1.42;;
46835;SDS011;32573;51.290;6.926;2023-01-01T03:46:41;3.67;;;1.23;;
46835;SDS011;32573;51.290;6.926;2023-01-01T03:49:10;3.10;;;1.38;;
46835;SDS011;32573;51.290;6.926;2023-01-01T03:51:48;6.20;;;1.40;;
46835;SDS011;32573;51.290;6.926;2023-01-01T03:54:24;3.83;;;1.40;;
46835;SDS011;32573;51.290;6.926;2023-01-01T03:57:04;5.85;;;1.38;;
46835;SDS011;32573;51.290;6.926;2023-01-01T03:59:38;3.42;;;1.40;;
46835;SDS011;32573;51.290;6.926;2023-01-01T04:02:13;2.90;;;1.20;;
46835;SDS011;32573;51.290;6.926;2023-01-01T04:04:46;3.90;;;1.38;;
46835;SDS011;32573;51.290;6.926;2023-01-01T04:07:16;3.40;;;1.48;;
46835;SDS011;32573;51.290;6.926;2023-01-01T04:09:46;3.88;;;1.30;;
46835;SDS011;32573;51.290;6.926;2023-01-01T04:12:16;4.97;;;1.38;;
46835;SDS011;32573;51.290;6.926;2023-01-01T04:14:46;3.85;;;1.20;;
46835;SDS011;32573;51.290;6.926;2023-01-01T04:17:15;3.58;;;1.33;;
46835;SDS011;32573;51.290;6.926;2023-01-01T04:19:44;2.72;;;1.30;;
46835;SDS011;32573;51.290;6.926;2023-01-01T04:22:20;4.05;;;1.40;;
46835;SDS011;32573;51.290;6.926;2023-01-01T04:24:49;3.97;;;1.50;;
46835;SDS011;32573;51.290;6.926;2023-01-01T04:27:18;4.20;;;1.25;;
46835;SDS011;32573;51.290;6.926;2023-01-01T04:29:46;3.75;;;1.30;;
46835;SDS011;32573;51.290;6.926;2023-01-01T04:32:16;5.60;;;1.52;;
46835;SDS011;32573;51.290;6.926;2023-01-01T04:34:44;3.78;;;1.40;;
46835;SDS011;32573;51.290;6.926;2023-01-01T04:37:13;4.35;;;1.60;;
46835;SDS011;32573;51.290;6.926;2023-01-01T04:39:41;4.70;;;1.40;;
46835;SDS011;32573;51.290;6.926;2023-01-01T04:42:10;4.18;;;1.35;;
46835;SDS011;32573;51.290;6.926;2023-01-01T04:44:38;4.15;;;1.50;;
46835;SDS011;32573;51.290;6.926;2023-01-01T04:47:07;3.28;;;1.33;;
46835;SDS011;32573;51.290;6.926;2023-01-01T04:49:37;4.75;;;1.35;;
46835;SDS011;32573;51.290;6.926;2023-01-01T04:52:05;3.60;;;1.30;;
46835;SDS011;32573;51.290;6.926;2023-01-01T04:54:33;3.22;;;1.17;;
46835;SDS011;32573;51.290;6.926;2023-01-01T04:57:02;3.40;;;1.20;;
46835;SDS011;32573;51.290;6.926;2023-01-01T04:59:30;4.20;;;1.35;;
46835;SDS011;32573;51.290;6.926;2023-01-01T05:01:58;4.35;;;1.50;;
46835;SDS011;32573;51.290;6.926;2023-01-01T05:04:27;3.58;;;1.20;;
46835;SDS011;32573;51.290;6.926;2023-01-01T05:06:57;3.15;;;1.35;;
46835;SDS011;32573;51.290;6.926;2023-01-01T05:09:25;4.38;;;1.25;;
46835;SDS011;32573;51.290;6.926;2023-01-01T05:11:53;3.15;;;1.30;;
46835;SDS011;32573;51.290;6.926;2023-01-01T05:14:22;3.40;;;1.23;;
46835;SDS011;32573;51.290;6.926;2023-01-01T05:16:51;2.80;;;1.30;;
46835;SDS011;32573;51.290;6.926;2023-01-01T05:19:19;3.47;;;1.30;;
46835;SDS011;32573;51.290;6.926;2023-01-01T05:21:48;4.18;;;1.42;;
46835;SDS011;32573;51.290;6.926;2023-01-01T05:24:17;4.07;;;1.40;;
46835;SDS011;32573;51.290;6.926;2023-01-01T05:26:46;3.45;;;1.30;;
46835;SDS011;32573;51.290;6.926;2023-01-01T05:29:14;4.82;;;1.40;;
46835;SDS011;32573;51.290;6.926;2023-01-01T05:31:43;3.72;;;1.20;;
46835;SDS011;32573;51.290;6.926;2023-01-01T05:34:13;5.00;;;1.38;;
46835;SDS011;32573;51.290;6.926;2023-01-01T05:36:41;6.28;;;1.45;;
46835;SDS011;32573;51.290;6.926;2023-01-01T05:39:10;4.25;;;1.38;;
46835;SDS011;32573;51.290;6.926;2023-01-01T05:41:41;3.55;;;1.45;;
46835;SDS011;32573;51.290;6.926;2023-01-01T05:44:09;5.10;;;1.40;;
46835;SDS011;32573;51.290;6.926;2023-01-01T05:46:38;3.80;;;1.40;;
46835;SDS011;32573;51.290;6.926;2023-01-01T05:49:08;6.03;;;1.60;;
46835;SDS011;32573;51.290;6.926;2023-01-01T05:51:37;5.13;;;1.50;;
46835;SDS011;32573;51.290;6.926;2023-01-01T05:54:04;4.55;;;1.50;;
46835;SDS011;32573;51.290;6.926;2023-01-01T05:56:33;6.10;;;1.50;;
46835;SDS011;32573;51.290;6.926;2023-01-01T05:59:02;3.80;;;1.40;;
46835;SDS011;32573;51.290;6.926;2023-01-01T06:01:31;4.47;;;1.50;;
46835;SDS011;32573;51.290;6.926;2023-01-01T06:04:09;3.50;;;1.50;;
46835;SDS011;32573;51.290;6.926;2023-01-01T06:06:37;3.80;;;1.55;;
46835;SDS011;32573;51.290;6.926;2023-01-01T06:09:05;4.40;;;1.55;;
46835;SDS011;32573;51.290;6.926;2023-01-01T06:11:34;4.10;;;1.42;;
46835;SDS011;32573;51.290;6.926;2023-01-01T06:14:03;5.90;;;1.67;;
46835;SDS011;32573;51.290;6.926;2023-01-01T06:16:32;5.28;;;1.70;;
46835;SDS011;32573;51.290;6.926;2023-01-01T06:19:00;5.82;;;1.48;;
46835;SDS011;32573;51.290;6.926;2023-01-01T06:21:29;4.93;;;1.45;;
46835;SDS011;32573;51.290;6.926;2023-01-01T06:23:57;3.72;;;1.48;;
46835;SDS011;32573;51.290;6.926;2023-01-01T06:26:27;4.05;;;1.40;;
46835;SDS011;32573;51.290;6.926;2023-01-01T06:28:57;3.75;;;1.40;;
46835;SDS011;32573;51.290;6.926;2023-01-01T06:31:28;5.18;;;1.45;;
46835;SDS011;32573;51.290;6.926;2023-01-01T06:34:06;4.13;;;1.30;;
46835;SDS011;32573;51.290;6.926;2023-01-01T06:36:34;4.18;;;1.50;;
46835;SDS011;32573;51.290;6.926;2023-01-01T06:39:03;4.53;;;1.38;;
46835;SDS011;32573;51.290;6.926;2023-01-01T06:41:31;5.63;;;1.60;;
46835;SDS011;32573;51.290;6.926;2023-01-01T06:44:00;4.22;;;1.70;;
46835;SDS011;32573;51.290;6.926;2023-01-01T06:46:31;5.47;;;1.48;;
46835;SDS011;32573;51.290;6.926;2023-01-01T06:49:01;4.82;;;1.65;;
46835;SDS011;32573;51.290;6.926;2023-01-01T06:51:31;4.88;;;1.50;;
46835;SDS011;32573;51.290;6.926;2023-01-01T06:54:01;6.35;;;1.65;;
46835;SDS011;32573;51.290;6.926;2023-01-01T06:56:31;5.55;;;1.60;;
46835;SDS011;32573;51.290;6.926;2023-01-01T06:58:59;3.88;;;1.40;;
46835;SDS011;32573;51.290;6.926;2023-01-01T07:01:30;3.75;;;1.27;;
46835;SDS011;32573;51.290;6.926;2023-01-01T07:04:02;4.82;;;1.40;;
46835;SDS011;32573;51.290;6.926;2023-01-01T07:06:31;4.28;;;1.48;;
46835;SDS011;32573;51.290;6.926;2023-01-01T07:09:01;4.72;;;1.40;;
46835;SDS011;32573;51.290;6.926;2023-01-01T07:11:29;4.43;;;1.50;;
46835;SDS011;32573;51.290;6.926;2023-01-01T07:14:00;3.22;;;1.27;;
46835;SDS011;32573;51.290;6.926;2023-01-01T07:16:30;4.97;;;1.50;;
46835;SDS011;32573;51.290;6.926;2023-01-01T07:18:58;4.30;;;1.85;;
46835;SDS011;32573;51.290;6.926;2023-01-01T07:21:27;5.20;;;1.50;;
46835;SDS011;32573;51.290;6.926;2023-01-01T07:23:58;4.35;;;1.42;;
46835;SDS011;32573;51.290;6.926;2023-01-01T07:26:27;5.10;;;1.55;;
46835;SDS011;32573;51.290;6.926;2023-01-01T07:28:57;4.75;;;1.40;;
46835;SDS011;32573;51.290;6.926;2023-01-01T07:31:35;4.18;;;1.42;;
46835;SDS011;32573;51.290;6.926;2023-01-01T07:34:06;4.18;;;1.70;;
46835;SDS011;32573;51.290;6.926;2023-01-01T07:36:36;5.45;;;1.63;;
46835;SDS011;32573;51.290;6.926;2023-01-01T07:39:04;5.15;;;1.30;;
46835;SDS011;32573;51.290;6.926;2023-01-01T07:41:33;5.57;;;1.55;;
46835;SDS011;32573;51.290;6.926;2023-01-01T07:44:02;3.40;;;1.50;;
46835;SDS011;32573;51.290;6.926;2023-01-01T07:46:32;8.60;;;1.70;;
46835;SDS011;32573;51.290;6.926;2023-01-01T07:49:03;3.85;;;1.42;;
46835;SDS011;32573;51.290;6.926;2023-01-01T07:51:32;6.22;;;1.75;;
46835;SDS011;32573;51.290;6.926;2023-01-01T07:54:00;6.75;;;1.85;;
46835;SDS011;32573;51.290;6.926;2023-01-01T07:56:33;5.75;;;1.58;;
46835;SDS011;32573;51.290;6.926;2023-01-01T07:59:02;5.80;;;1.98;;
46835;SDS011;32573;51.290;6.926;2023-01-01T08:01:35;6.53;;;1.80;;
46835;SDS011;32573;51.290;6.926;2023-01-01T08:04:04;6.10;;;1.90;;
46835;SDS011;32573;51.290;6.926;2023-01-01T08:06:32;5.50;;;1.95;;
46835;SDS011;32573;51.290;6.926;2023-01-01T08:09:00;4.18;;;1.80;;
46835;SDS011;32573;51.290;6.926;2023-01-01T08:11:29;5.93;;;1.98;;
46835;SDS011;32573;51.290;6.926;2023-01-01T08:13:57;4.60;;;1.80;;
46835;SDS011;32573;51.290;6.926;2023-01-01T08:16:27;5.95;;;1.98;;
46835;SDS011;32573;51.290;6.926;2023-01-01T08:18:57;4.30;;;1.65;;
46835;SDS011;32573;51.290;6.926;2023-01-01T08:21:25;4.97;;;1.60;;
46835;SDS011;32573;51.290;6.926;2023-01-01T08:23:53;6.40;;;1.50;;
46835;SDS011;32573;51.290;6.926;2023-01-01T08:26:26;5.35;;;1.60;;
46835;SDS011;32573;51.290;6.926;2023-01-01T08:28:56;4.70;;;1.52;;
46835;SDS011;32573;51.290;6.926;2023-01-01T08:31:25;5.60;;;1.65;;
46835;SDS011;32573;51.290;6.926;2023-01-01T08:33:53;5.50;;;1.70;;
46835;SDS011;32573;51.290;6.926;2023-01-01T08:36:23;4.93;;;1.80;;
46835;SDS011;32573;51.290;6.926;2023-01-01T08:38:51;5.40;;;1.63;;
46835;SDS011;32573;51.290;6.926;2023-01-01T08:41:20;6.38;;;1.92;;
46835;SDS011;32573;51.290;6.926;2023-01-01T08:43:49;6.68;;;1.70;;
46835;SDS011;32573;51.290;6.926;2023-01-01T08:46:17;6.13;;;2.00;;
46835;SDS011;32573;51.290;6.926;2023-01-01T08:48:45;8.57;;;2.25;;
46835;SDS011;32573;51.290;6.926;2023-01-01T08:51:14;5.55;;;2.00;;
46835;SDS011;32573;51.290;6.926;2023-01-01T08:53:44;5.07;;;1.90;;
46835;SDS011;32573;51.290;6.926;2023-01-01T08:56:17;7.20;;;2.20;;
46835;SDS011;32573;51.290;6.926;2023-01-01T08:58:46;4.22;;;1.80;;
46835;SDS011;32573;51.290;6.926;2023-01-01T09:01:14;4.10;;;1.58;;
46835;SDS011;32573;51.290;6.926;2023-01-01T09:03:43;5.13;;;1.85;;
46835;SDS011;32573;51.290;6.926;2023-01-01T09:06:12;5.72;;;1.73;;
46835;SDS011;32573;51.290;6.926;2023-01-01T09:08:40;5.35;;;1.63;;
46835;SDS011;32573;51.290;6.926;2023-01-01T09:11:16;5.55;;;1.50;;
46835;SDS011;32573;51.290;6.926;2023-01-01T09:13:49;4.80;;;1.50;;
46835;SDS011;32573;51.290;6.926;2023-01-01T09:16:18;4.80;;;1.52;;
46835;SDS011;32573;51.290;6.926;2023-01-01T09:18:47;4.75;;;1.80;;
46835;SDS011;32573;51.290;6.926;2023-01-01T09:21:15;3.65;;;1.40;;
46835;SDS011;32573;51.290;6.926;2023-01-01T09:23:44;6.35;;;1.77;;
46835;SDS011;32573;51.290;6.926;2023-01-01T09:26:12;5.47;;;1.50;;
46835;SDS011;32573;51.290;6.926;2023-01-01T09:28:42;4.05;;;1.55;;
46835;SDS011;32573;51.290;6.926;2023-01-01T09:31:10;4.75;;;1.50;;
46835;SDS011;32573;51.290;6.926;2023-01-01T09:33:39;4.30;;;1.50;;
46835;SDS011;32573;51.290;6.926;2023-01-01T09:36:11;3.97;;;1.60;;
46835;SDS011;32573;51.290;6.926;2023-01-01T09:38:40;5.18;;;1.60;;
46835;SDS011;32573;51.290;6.926;2023-01-01T09:41:11;4.85;;;1.60;;
46835;SDS011;32573;51.290;6.926;2023-01-01T09:43:50;7.03;;;1.60;;
46835;SDS011;32573;51.290;6.926;2023-01-01T09:46:26;4.93;;;1.67;;
46835;SDS011;32573;51.290;6.926;2023-01-01T09:48:58;5.60;;;1.50;;
46835;SDS011;32573;51.290;6.926;2023-01-01T09:51:31;4.68;;;1.70;;
46835;SDS011;32573;51.290;6.926;2023-01-01T09:54:14;5.45;;;1.60;;
46835;SDS011;32573;51.290;6.926;2023-01-01T09:56:56;4.15;;;1.58;;
46835;SDS011;32573;51.290;6.926;2023-01-01T09:59:28;3.85;;;1.52;;
46835;SDS011;32573;51.290;6.926;2023-01-01T10:01:58;5.10;;;1.50;;
46835;SDS011;32573;51.290;6.926;2023-01-01T10:04:39;5.28;;;1.60;;
46835;SDS011;32573;51.290;6.926;2023-01-01T10:07:17;4.18;;;1.60;;
46835;SDS011;32573;51.290;6.926;2023-01-01T10:10:01;3.90;;;1.45;;
46835;SDS011;32573;51.290;6.926;2023-01-01T10:12:35;4.65;;;1.70;;
46835;SDS011;32573;51.290;6.926;2023-01-01T10:15:12;6.18;;;1.65;;
46835;SDS011;32573;51.290;6.926;2023-01-01T10:17:44;5.18;;;1.60;;
46835;SDS011;32573;51.290;6.926;2023-01-01T10:20:17;5.75;;;1.60;;
46835;SDS011;32573;51.290;6.926;2023-01-01T10:22:50;4.68;;;1.55;;
46835;SDS011;32573;51.290;6.926;2023-01-01T10:25:21;4.28;;;1.60;;
46835;SDS011;32573;51.290;6.926;2023-01-01T10:27:53;6.60;;;1.60;;
46835;SDS011;32573;51.290;6.926;2023-01-01T10:30:27;3.88;;;1.55;;
46835;SDS011;32573;51.290;6.926;2023-01-01T10:32:56;3.75;;;1.50;;
46835;SDS011;32573;51.290;6.926;2023-01-01T10:35:27;4.35;;;1.50;;
46835;SDS011;32573;51.290;6.926;2023-01-01T10:38:02;6.20;;;1.67;;
46835;SDS011;32573;51.290;6.926;2023-01-01T10:40:31;5.38;;;1.60;;
46835;SDS011;32573;51.290;6.926;2023-01-01T10:43:00;4.47;;;1.50;;
46835;SDS011;32573;51.290;6.926;2023-01-01T10:45:32;3.80;;;1.30;;
46835;SDS011;32573;51.290;6.926;2023-01-01T10:48:09;4.35;;;1.60;;
46835;SDS011;32573;51.290;6.926;2023-01-01T10:50:41;4.97;;;1.65;;
46835;SDS011;32573;51.290;6.926;2023-01-01T10:53:23;6.57;;;1.70;;
46835;SDS011;32573;51.290;6.926;2023-01-01T10:55:57;5.03;;;1.73;;
46835;SDS011;32573;51.290;6.926;2023-01-01T10:58:33;5.18;;;1.40;;
46835;SDS011;32573;51.290;6.926;2023-01-01T11:01:06;4.68;;;1.52;;
46835;SDS011;32573;51.290;6.926;2023-01-01T11:03:36;4.80;;;1.40;;
46835;SDS011;32573;51.290;6.926;2023-01-01T11:06:09;5.30;;;1.52;;
46835;SDS011;32573;51.290;6.926;2023-01-01T11:08:46;4.43;;;1.42;;
46835;SDS011;32573;51.290;6.926;2023-01-01T11:11:18;4.85;;;1.70;;
46835;SDS011;32573;51.290;6.926;2023-01-01T11:13:48;4.25;;;1.67;;
46835;SDS011;32573;51.290;6.926;2023-01-01T11:16:19;4.82;;;1.45;;
46835;SDS011;32573;51.290;6.926;2023-01-01T11:18:48;3.72;;;1.70;;
46835;SDS011;32573;51.290;6.926;2023-01-01T11:21:21;5.13;;;1.50;;
46835;SDS011;32573;51.290;6.926;2023-01-01T11:23:51;3.65;;;1.40;;
46835;SDS011;32573;51.290;6.926;2023-01-01T11:26:37;5.65;;;1.98;;
46835;SDS011;32573;51.290;6.926;2023-01-01T11:29:15;5.82;;;1.55;;
46835;SDS011;32573;51.290;6.926;2023-01-01T11:31:49;4.35;;;1.70;;
46835;SDS011;32573;51.290;6.926;2023-01-01T11:34:26;4.78;;;1.45;;
46835;SDS011;32573;51.290;6.926;2023-01-01T11:37:08;4.05;;;1.50;;
46835;SDS011;32573;51.290;6.926;2023-01-01T11:39:44;6.13;;;1.90;;
46835;SDS011;32573;51.290;6.926;2023-01-01T11:42:15;5.80;;;1.77;;
46835;SDS011;32573;51.290;6.926;2023-01-01T11:44:45;5.43;;;1.50;;
46835;SDS011;32573;51.290;6.926;2023-01-01T11:47:22;7.38;;;1.67;;
46835;SDS011;32573;51.290;6.926;2023-01-01T11:49:55;6.13;;;1.55;;
46835;SDS011;32573;51.290;6.926;2023-01-01T11:52:34;5.65;;;1.40;;
46835;SDS011;32573;51.290;6.926;2023-01-01T11:55:10;5.07;;;1.60;;
46835;SDS011;32573;51.290;6.926;2023-01-01T11:57:44;4.65;;;1.70;;
46835;SDS011;32573;51.290;6.926;2023-01-01T12:00:18;4.82;;;1.80;;
46835;SDS011;32573;51.290;6.926;2023-01-01T12:02:49;6.28;;;1.70;;
46835;SDS011;32573;51.290;6.926;2023-01-01T12:05:25;5.75;;;1.75;;
46835;SDS011;32573;51.290;6.926;2023-01-01T12:08:02;4.15;;;1.58;;
46835;SDS011;32573;51.290;6.926;2023-01-01T12:10:43;4.70;;;1.55;;
46835;SDS011;32573;51.290;6.926;2023-01-01T12:13:16;7.30;;;2.25;;
46835;SDS011;32573;51.290;6.926;2023-01-01T12:15:48;6.25;;;1.60;;
46835;SDS011;32573;51.290;6.926;2023-01-01T12:18:28;5.63;;;1.60;;
46835;SDS011;32573;51.290;6.926;2023-01-01T12:21:05;5.53;;;1.60;;
46835;SDS011;32573;51.290;6.926;2023-01-01T12:23:38;5.07;;;1.40;;
46835;SDS011;32573;51.290;6.926;2023-01-01T12:26:10;4.85;;;1.45;;
46835;SDS011;32573;51.290;6.926;2023-01-01T12:28:49;4.53;;;1.50;;
46835;SDS011;32573;51.290;6.926;2023-01-01T12:31:40;5.05;;;1.75;;
46835;SDS011;32573;51.290;6.926;2023-01-01T12:34:16;5.03;;;1.52;;
46835;SDS011;32573;51.290;6.926;2023-01-01T12:36:52;4.82;;;1.77;;
46835;SDS011;32573;51.290;6.926;2023-01-01T12:42:54;3.75;;;1.45;;
46835;SDS011;32573;51.290;6.926;2023-01-01T12:45:33;5.78;;;1.88;;
46835;SDS011;32573;51.290;6.926;2023-01-01T12:48:29;3.95;;;1.52;;
46835;SDS011;32573;51.290;6.926;2023-01-01T12:51:24;4.00;;;1.33;;
46835;SDS011;32573;51.290;6.926;2023-01-01T12:54:01;5.63;;;1.45;;
46835;SDS011;32573;51.290;6.926;2023-01-01T12:56:47;4.97;;;1.50;;
46835;SDS011;32573;51.290;6.926;2023-01-01T12:59:23;5.13;;;1.58;;
46835;SDS011;32573;51.290;6.926;2023-01-01T13:01:59;5.65;;;1.63;;
46835;SDS011;32573;51.290;6.926;2023-01-01T13:04:32;4.65;;;1.70;;
46835;SDS011;32573;51.290;6.926;2023-01-01T13:07:02;6.18;;;1.58;;
46835;SDS011;32573;51.290;6.926;2023-01-01T13:09:36;5.53;;;1.58;;
46835;SDS011;32573;51.290;6.926;2023-01-01T13:12:09;5.43;;;1.45;;
46835;SDS011;32573;51.290;6.926;2023-01-01T13:14:40;5.53;;;1.40;;
46835;SDS011;32573;51.290;6.926;2023-01-01T13:17:16;5.20;;;1.55;;
46835;SDS011;32573;51.290;6.926;2023-01-01T13:19:46;6.68;;;1.45;;
46835;SDS011;32573;51.290;6.926;2023-01-01T13:25:18;5.05;;;1.67;;
46835;SDS011;32573;51.290;6.926;2023-01-01T13:28:00;3.63;;;1.40;;
46835;SDS011;32573;51.290;6.926;2023-01-01T13:30:49;4.82;;;1.70;;
46835;SDS011;32573;51.290;6.926;2023-01-01T13:33:20;5.38;;;1.70;;
46835;SDS011;32573;51.290;6.926;2023-01-01T13:38:59;6.68;;;1.63;;
46835;SDS011;32573;51.290;6.926;2023-01-01T13:41:28;5.47;;;1.65;;
46835;SDS011;32573;51.290;6.926;2023-01-01T13:44:11;4.82;;;1.50;;
46835;SDS011;32573;51.290;6.926;2023-01-01T13:46:48;5.43;;;1.63;;
46835;SDS011;32573;51.290;6.926;2023-01-01T13:49:32;5.10;;;1.50;;
46835;SDS011;32573;51.290;6.926;2023-01-01T13:55:23;4.93;;;1.52;;
46835;SDS011;32573;51.290;6.926;2023-01-01T13:58:15;5.57;;;1.45;;
46835;SDS011;32573;51.290;6.926;2023-01-01T14:01:11;5.00;;;1.83;;
46835;SDS011;32573;51.290;6.926;2023-01-01T14:03:52;4.90;;;1.40;;
46835;SDS011;32573;51.290;6.926;2023-01-01T14:06:24;3.60;;;1.50;;
46835;SDS011;32573;51.290;6.926;2023-01-01T14:09:00;6.32;;;1.50;;
46835;SDS011;32573;51.290;6.926;2023-01-01T14:11:31;3.80;;;1.38;;
46835;SDS011;32573;51.290;6.926;2023-01-01T14:13:59;4.75;;;1.40;;
46835;SDS011;32573;51.290;6.926;2023-01-01T14:16:28;3.63;;;1.30;;
46835;SDS011;32573;51.290;6.926;2023-01-01T14:18:57;4.00;;;1.30;;
46835;SDS011;32573;51.290;6.926;2023-01-01T14:21:30;4.03;;;1.42;;
46835;SDS011;32573;51.290;6.926;2023-01-01T14:25:05;3.53;;;1.15;;
46835;SDS011;32573;51.290;6.926;2023-01-01T14:28:48;5.15;;;1.48;;
46835;SDS011;32573;51.290;6.926;2023-01-01T14:31:20;4.18;;;1.50;;
46835;SDS011;32573;51.290;6.926;2023-01-01T14:33:54;2.95;;;1.23;;
46835;SDS011;32573;51.290;6.926;2023-01-01T14:36:24;4.03;;;1.40;;
46835;SDS011;32573;51.290;6.926;2023-01-01T14:38:54;4.65;;;1.45;;
46835;SDS011;32573;51.290;6.926;2023-01-01T14:41:24;4.65;;;1.30;;
46835;SDS011;32573;51.290;6.926;2023-01-01T14:43:57;4.65;;;1.40;;
46835;SDS011;32573;51.290;6.926;2023-01-01T14:46:31;3.63;;;1.30;;
46835;SDS011;32573;51.290;6.926;2023-01-01T14:49:02;3.40;;;1.27;;
46835;SDS011;32573;51.290;6.926;2023-01-01T14:51:36;3.83;;;1.40;;
46835;SDS011;32573;51.290;6.926;2023-01-01T14:54:13;3.42;;;1.30;;
46835;SDS011;32573;51.290;6.926;2023-01-01T14:56:46;4.13;;;1.15;;
46835;SDS011;32573;51.290;6.926;2023-01-01T14:59:20;4.80;;;1.40;;
46835;SDS011;32573;51.290;6.926;2023-01-01T15:01:57;2.78;;;1.35;;
46835;SDS011;32573;51.290;6.926;2023-01-01T15:04:27;2.80;;;1.30;;
46835;SDS011;32573;51.290;6.926;2023-01-01T15:06:57;2.58;;;1.30;;
46835;SDS011;32573;51.290;6.926;2023-01-01T15:09:27;3.08;;;1.20;;
46835;SDS011;32573;51.290;6.926;2023-01-01T15:11:58;4.35;;;1.20;;
46835;SDS011;32573;51.290;6.926;2023-01-01T15:14:29;4.03;;;1.30;;
46835;SDS011;32573;51.290;6.926;2023-01-01T15:17:00;4.22;;;1.30;;
46835;SDS011;32573;51.290;6.926;2023-01-01T15:19:30;3.55;;;1.30;;
46835;SDS011;32573;51.290;6.926;2023-01-01T15:21:58;3.28;;;1.30;;
46835;SDS011;32573;51.290;6.926;2023-01-01T15:24:26;5.65;;;1.42;;
46835;SDS011;32573;51.290;6.926;2023-01-01T15:26:56;3.72;;;1.30;;
46835;SDS011;32573;51.290;6.926;2023-01-01T15:29:27;4.43;;;1.50;;